Time;durP1;ratioP1;P1;durP2;ratioP2;P2;SDS_P1;SDS_P2;PMS_P1;PMS_P2;Temp;Humidity;BMP_temperature;BMP_pressure;BME280_temperature;BME280_humidity;BME280_pressure;Samples;Min_cycle;Max_cycle;Signal;HPM_P1;HPM_P2
2021/01/19 00:01:56;;;;;;;17.93;9.17;;;4.20;99.90;;;;;;4986763;28;20183;-83
2021/01/19 00:04:22;;;;;;;16.57;8.03;;;4.10;99.90;;;;;;4971076;28;20190;-82
2021/01/19 00:06:48;;;;;;;13.97;7.33;;;4.00;99.90;;;;;;5005367;28;20198;-83
2021/01/19 00:09:13;;;;;;;18.03;10.07;;;4.10;99.90;;;;;;4990244;28;20202;-82
2021/01/19 00:11:39;;;;;;;16.03;7.40;;;4.00;99.90;;;;;;4988018;28;20615;-81
2021/01/19 00:14:05;;;;;;;12.00;7.43;;;4.00;99.90;;;;;;5001754;28;20167;-82
2021/01/19 00:16:30;;;;;;;14.03;6.57;;;4.00;99.90;;;;;;5004415;28;20225;-81
2021/01/19 00:18:56;;;;;;;14.60;8.13;;;4.00;99.90;;;;;;4986302;28;20183;-82
2021/01/19 00:21:22;;;;;;;17.70;9.00;;;4.00;99.90;;;;;;4970722;28;20254;-83
2021/01/19 00:23:50;;;;;;;26.10;9.60;;;4.00;99.90;;;;;;4987269;28;20175;-83
2021/01/19 00:26:16;;;;;;;13.00;7.75;;;4.00;99.90;;;;;;4986923;28;20201;-82
2021/01/19 00:28:41;;;;;;;10.83;8.17;;;4.00;99.90;;;;;;4971839;28;20293;-83
2021/01/19 00:31:08;;;;;;;10.73;7.30;;;3.90;99.90;;;;;;4971758;28;20259;-83
2021/01/19 00:33:34;;;;;;;12.85;7.78;;;3.90;99.90;;;;;;4972491;28;20195;-83
2021/01/19 00:36:00;;;;;;;13.43;8.50;;;3.90;99.90;;;;;;5007342;28;20237;-83
2021/01/19 00:38:25;;;;;;;14.83;9.50;;;4.00;99.90;;;;;;4984409;28;20464;-83
2021/01/19 00:40:51;;;;;;;18.93;9.93;;;4.00;99.90;;;;;;5016787;28;20175;-82
2021/01/19 00:43:20;;;;;;;16.83;8.30;;;4.00;99.90;;;;;;4973133;28;20219;-83
2021/01/19 00:45:45;;;;;;;18.92;7.47;;;4.00;99.90;;;;;;4987918;28;20194;-83
2021/01/19 00:48:11;;;;;;;18.93;8.37;;;4.00;99.90;;;;;;5003464;28;20178;-83
2021/01/19 00:50:37;;;;;;;20.97;9.60;;;4.00;99.90;;;;;;4985673;28;20210;-82
2021/01/19 00:53:03;;;;;;;13.27;8.30;;;4.00;99.90;;;;;;4987970;28;20233;-84
2021/01/19 00:55:29;;;;;;;21.63;8.60;;;4.00;99.90;;;;;;4984724;28;20194;-82
2021/01/19 00:57:54;;;;;;;14.53;8.80;;;4.00;99.90;;;;;;4986301;28;20577;-82
2021/01/19 01:00:21;;;;;;;13.50;7.90;;;4.00;99.90;;;;;;4986856;28;20183;-83
2021/01/19 01:02:49;;;;;;;18.88;8.70;;;4.00;99.90;;;;;;4971743;28;20185;-83
2021/01/19 01:05:16;;;;;;;17.23;8.90;;;3.90;99.90;;;;;;4990541;28;20229;-82
2021/01/19 01:07:54;;;;;;;13.75;8.45;;;4.00;99.90;;;;;;5007380;28;20469;-82
2021/01/19 01:10:20;;;;;;;17.33;8.75;;;4.00;99.90;;;;;;4987191;28;20206;-83
2021/01/19 01:12:45;;;;;;;16.83;8.10;;;4.00;99.90;;;;;;4985730;28;20262;-82
2021/01/19 01:15:20;;;;;;;14.97;8.87;;;4.00;99.90;;;;;;4986478;28;20195;-82
2021/01/19 01:17:48;;;;;;;13.02;7.72;;;4.10;99.90;;;;;;5003204;28;20417;-82
2021/01/19 01:20:14;;;;;;;15.00;9.70;;;4.00;99.90;;;;;;5004219;28;20534;-82
2021/01/19 01:22:47;;;;;;;15.67;8.60;;;4.10;99.90;;;;;;4987166;28;20175;-82
2021/01/19 01:25:13;;;;;;;20.30;8.68;;;4.10;99.90;;;;;;4970448;28;20511;-82
2021/01/19 01:27:41;;;;;;;14.82;8.82;;;4.00;99.90;;;;;;4969648;28;20206;-82
2021/01/19 01:30:11;;;;;;;14.02;7.15;;;4.10;99.90;;;;;;4983476;28;20207;-82
2021/01/19 01:32:45;;;;;;;19.10;8.25;;;4.10;99.90;;;;;;4983274;28;20178;-82
2021/01/19 01:35:14;;;;;;;13.45;6.97;;;4.10;99.90;;;;;;5000374;28;20198;-83
2021/01/19 01:37:53;;;;;;;14.48;9.55;;;4.20;99.90;;;;;;4999205;28;20246;-82
2021/01/19 01:40:25;;;;;;;17.55;8.50;;;4.10;99.90;;;;;;4983465;28;20178;-83
2021/01/19 01:42:55;;;;;;;15.18;7.95;;;4.20;99.90;;;;;;4999894;28;20179;-83
2021/01/19 01:45:23;;;;;;;15.45;7.93;;;4.20;99.90;;;;;;4999911;28;20194;-83
2021/01/19 01:47:50;;;;;;;15.07;9.10;;;4.20;99.90;;;;;;4998988;28;20182;-83
2021/01/19 01:50:20;;;;;;;20.85;9.23;;;4.10;99.90;;;;;;4989316;28;20203;-82
2021/01/19 01:52:46;;;;;;;11.38;7.05;;;4.10;99.90;;;;;;4983066;28;20171;-82
2021/01/19 01:55:15;;;;;;;13.93;7.90;;;4.00;99.90;;;;;;4989424;28;20271;-83
2021/01/19 01:57:41;;;;;;;16.50;8.27;;;4.00;99.90;;;;;;4973501;28;20171;-83
2021/01/19 02:00:09;;;;;;;16.85;9.40;;;4.00;99.90;;;;;;4983180;28;20174;-83
2021/01/19 02:02:34;;;;;;;17.67;8.98;;;4.00;99.90;;;;;;5000002;28;20167;-83
2021/01/19 02:05:01;;;;;;;18.73;8.90;;;4.10;99.90;;;;;;4981749;28;20209;-83
2021/01/19 02:07:53;;;;;;;13.68;7.80;;;4.20;99.90;;;;;;4982973;28;20417;-82
2021/01/19 02:10:18;;;;;;;13.90;8.65;;;4.20;99.90;;;;;;5007019;28;20199;-83
2021/01/19 02:13:10;;;;;;;14.90;7.90;;;4.20;99.90;;;;;;5008283;28;20170;-84
2021/01/19 02:15:45;;;;;;;16.80;8.38;;;4.10;99.90;;;;;;4991758;28;20198;-84
2021/01/19 02:19:08;;;;;;;21.52;8.10;;;4.20;99.90;;;;;;5008638;28;20181;-85
2021/01/19 02:22:06;;;;;;;16.88;7.80;;;4.30;99.90;;;;;;4968226;28;20187;-83
2021/01/19 02:25:10;;;;;;;13.35;8.93;;;4.40;99.90;;;;;;5000011;28;20258;-83
2021/01/19 02:28:03;;;;;;;14.68;8.25;;;4.50;99.90;;;;;;5000776;28;20163;-83
2021/01/19 02:30:57;;;;;;;13.02;7.25;;;4.60;99.90;;;;;;4984324;28;20202;-83
2021/01/19 02:33:32;;;;;;;9.02;6.35;;;4.60;99.90;;;;;;4984478;28;20175;-83
2021/01/19 02:36:19;;;;;;;15.73;8.05;;;4.70;99.90;;;;;;5001704;28;20186;-83
2021/01/19 02:38:58;;;;;;;9.25;6.57;;;4.50;99.90;;;;;;5003095;28;20615;-83
2021/01/19 02:41:26;;;;;;;15.80;6.70;;;4.40;99.90;;;;;;4986200;28;20194;-83
2021/01/19 02:44:09;;;;;;;11.43;6.60;;;4.30;99.90;;;;;;4985909;28;20675;-83
2021/01/19 02:46:35;;;;;;;13.45;7.50;;;4.30;99.90;;;;;;4983290;28;20194;-84
2021/01/19 02:49:01;;;;;;;13.80;8.03;;;4.20;99.90;;;;;;4998930;28;20567;-83
2021/01/19 02:51:28;;;;;;;15.70;7.60;;;4.20;99.90;;;;;;4983400;28;20421;-85
2021/01/19 02:53:55;;;;;;;11.20;7.28;;;4.20;99.90;;;;;;4991544;28;20410;-83
2021/01/19 02:56:46;;;;;;;15.52;9.05;;;4.30;99.90;;;;;;5005965;28;20191;-82
2021/01/19 02:59:29;;;;;;;13.85;7.82;;;4.40;99.90;;;;;;5000386;28;20175;-84
2021/01/19 03:02:18;;;;;;;12.90;6.80;;;4.50;99.90;;;;;;4992885;28;20186;-83
2021/01/19 03:04:46;;;;;;;14.88;7.43;;;4.60;99.90;;;;;;5004650;28;20214;-81
2021/01/19 03:07:18;;;;;;;12.20;7.60;;;4.60;99.90;;;;;;4984198;28;20244;-82
2021/01/19 03:09:44;;;;;;;11.00;7.47;;;4.60;99.90;;;;;;4970626;28;20693;-83
2021/01/19 03:12:14;;;;;;;11.20;6.93;;;4.70;99.90;;;;;;5004688;28;20557;-82
2021/01/19 03:14:40;;;;;;;14.00;6.85;;;4.70;99.90;;;;;;4987847;28;20232;-83
2021/01/19 03:17:11;;;;;;;13.20;7.03;;;4.70;99.90;;;;;;5004728;28;20209;-84
2021/01/19 03:19:41;;;;;;;12.75;7.85;;;4.70;99.90;;;;;;5004993;28;20167;-82
2021/01/19 03:22:07;;;;;;;12.98;7.50;;;4.70;99.90;;;;;;5004509;28;20175;-82
2021/01/19 03:24:33;;;;;;;11.57;7.47;;;4.60;99.90;;;;;;4986240;28;20182;-82
2021/01/19 03:26:59;;;;;;;14.90;6.30;;;4.60;99.90;;;;;;4987315;28;20206;-82
2021/01/19 03:29:25;;;;;;;10.40;6.95;;;4.60;99.90;;;;;;5004059;28;20443;-82
2021/01/19 03:31:51;;;;;;;14.23;7.72;;;4.60;99.90;;;;;;5003298;28;20252;-83
2021/01/19 03:34:17;;;;;;;14.40;7.70;;;4.60;99.90;;;;;;5003594;28;20178;-83
2021/01/19 03:36:43;;;;;;;12.70;6.97;;;4.70;99.90;;;;;;5003889;28;20388;-82
2021/01/19 03:39:09;;;;;;;14.13;7.27;;;4.60;99.90;;;;;;5003554;28;20206;-82
2021/01/19 03:41:34;;;;;;;14.10;5.97;;;4.60;99.90;;;;;;4987111;28;20181;-84
2021/01/19 03:44:00;;;;;;;9.57;6.00;;;4.60;99.90;;;;;;4990378;28;20445;-83
2021/01/19 03:46:26;;;;;;;13.77;6.70;;;4.60;99.90;;;;;;4989768;28;20198;-84
2021/01/19 03:48:52;;;;;;;17.57;8.07;;;4.70;99.90;;;;;;5005872;28;20314;-84
2021/01/19 03:51:18;;;;;;;13.63;7.18;;;4.60;99.90;;;;;;5005308;28;20469;-84
2021/01/19 03:53:44;;;;;;;13.05;6.22;;;4.70;99.90;;;;;;5005103;28;20170;-85
2021/01/19 03:56:09;;;;;;;11.37;7.43;;;4.70;99.90;;;;;;4988993;28;20525;-84
2021/01/19 03:58:35;;;;;;;12.77;7.00;;;4.60;99.90;;;;;;4972132;28;20229;-84
2021/01/19 04:01:01;;;;;;;13.10;6.97;;;4.70;99.90;;;;;;4988417;28;20229;-85
2021/01/19 04:03:27;;;;;;;16.58;6.65;;;4.70;99.90;;;;;;5008417;28;20171;-85
2021/01/19 04:05:52;;;;;;;12.60;7.23;;;4.70;99.90;;;;;;5008087;28;20234;-84
2021/01/19 04:08:18;;;;;;;16.50;7.10;;;4.60;99.90;;;;;;5006863;28;20230;-85
2021/01/19 04:10:48;;;;;;;13.90;6.80;;;4.60;99.90;;;;;;4990730;28;20241;-84
2021/01/19 04:13:15;;;;;;;12.43;6.97;;;4.60;99.90;;;;;;5009307;28;20174;-85
2021/01/19 04:15:41;;;;;;;11.50;6.25;;;4.60;99.90;;;;;;4976257;28;20198;-85
2021/01/19 04:18:07;;;;;;;13.20;7.73;;;4.60;99.90;;;;;;5010287;28;20202;-86
2021/01/19 04:20:32;;;;;;;11.07;6.30;;;4.60;99.90;;;;;;4994036;28;20170;-85
2021/01/19 04:22:59;;;;;;;9.97;6.50;;;4.60;99.90;;;;;;5011396;28;20171;-86
2021/01/19 04:25:25;;;;;;;11.80;7.13;;;4.70;99.90;;;;;;4998130;28;20191;-86
2021/01/19 04:27:51;;;;;;;12.50;7.32;;;4.60;99.90;;;;;;5000656;28;20183;-85
2021/01/19 04:30:17;;;;;;;9.73;6.17;;;4.60;99.90;;;;;;4997370;28;20205;-85
2021/01/19 04:32:45;;;;;;;12.40;7.65;;;4.70;99.90;;;;;;4991398;28;20497;-85
2021/01/19 04:35:11;;;;;;;11.52;6.47;;;4.60;99.90;;;;;;5008962;28;20187;-84
2021/01/19 04:37:36;;;;;;;11.50;6.80;;;4.60;99.90;;;;;;5010123;28;20175;-85
2021/01/19 04:40:04;;;;;;;7.90;5.67;;;4.70;99.90;;;;;;4991719;28;20837;-86
2021/01/19 04:42:33;;;;;;;12.55;6.90;;;4.70;99.90;;;;;;5008732;28;20433;-85
2021/01/19 04:45:03;;;;;;;13.52;7.55;;;4.70;99.90;;;;;;4990978;28;20221;-85
2021/01/19 04:47:31;;;;;;;9.38;5.85;;;4.70;99.90;;;;;;4992165;28;20175;-85
2021/01/19 04:49:59;;;;;;;10.30;6.72;;;4.70;99.90;;;;;;4975385;28;20236;-84
2021/01/19 04:52:29;;;;;;;15.02;6.45;;;4.70;99.90;;;;;;4992218;28;20187;-86
2021/01/19 04:55:11;;;;;;;16.27;7.00;;;4.80;99.90;;;;;;5009659;28;20190;-83
2021/01/19 04:57:41;;;;;;;12.05;6.63;;;4.60;99.90;;;;;;4992202;28;20242;-84
2021/01/19 05:00:09;;;;;;;10.82;6.45;;;4.40;99.90;;;;;;4993335;28;20162;-85
2021/01/19 05:02:49;;;;;;;10.82;6.75;;;4.40;99.90;;;;;;5014185;28;20191;-86
2021/01/19 05:05:37;;;;;;;10.05;6.47;;;4.50;99.90;;;;;;5014065;28;20213;-85
2021/01/19 05:08:02;;;;;;;10.45;6.07;;;4.50;99.90;;;;;;5013304;28;20175;-85
2021/01/19 05:10:36;;;;;;;7.30;5.23;;;4.50;99.90;;;;;;5012730;28;20203;-84
2021/01/19 05:13:09;;;;;;;7.40;5.10;;;4.60;99.90;;;;;;4995323;28;20538;-85
2021/01/19 05:15:43;;;;;;;10.65;6.35;;;4.60;99.90;;;;;;4995307;28;20191;-85
2021/01/19 05:18:12;;;;;;;7.43;5.05;;;4.60;99.90;;;;;;5013824;28;20182;-86
2021/01/19 05:20:45;;;;;;;11.00;6.07;;;4.60;99.90;;;;;;4996897;28;20182;-87
2021/01/19 05:23:21;;;;;;;9.02;5.22;;;4.40;99.90;;;;;;4997947;28;20196;-86
2021/01/19 05:26:08;;;;;;;9.25;5.75;;;4.50;99.90;;;;;;4998185;28;20206;-85
2021/01/19 05:29:05;;;;;;;16.50;6.43;;;4.60;99.90;;;;;;4990154;28;20209;-86
2021/01/19 05:31:31;;;;;;;11.43;6.53;;;4.60;99.90;;;;;;5009270;28;20179;-85
2021/01/19 05:34:03;;;;;;;8.52;5.55;;;4.60;99.90;;;;;;5011192;28;20169;-86
2021/01/19 05:36:35;;;;;;;7.72;5.32;;;4.60;99.90;;;;;;5011667;28;20313;-84
2021/01/19 05:39:01;;;;;;;10.23;5.68;;;4.60;99.90;;;;;;4993539;28;20250;-84
2021/01/19 05:41:31;;;;;;;12.97;5.97;;;4.60;99.90;;;;;;4993970;28;20250;-84
2021/01/19 05:44:22;;;;;;;12.88;6.07;;;4.60;99.90;;;;;;4995842;28;20429;-84
2021/01/19 05:47:04;;;;;;;8.60;5.00;;;4.70;99.90;;;;;;5012432;28;20170;-85
2021/01/19 05:49:38;;;;;;;7.03;5.05;;;4.70;99.90;;;;;;4992203;28;20214;-84
2021/01/19 05:52:08;;;;;;;7.32;4.88;;;4.70;99.90;;;;;;5008568;28;20167;-84
2021/01/19 05:54:48;;;;;;;8.43;4.40;;;4.70;99.90;;;;;;4992821;28;20179;-84
2021/01/19 05:57:20;;;;;;;7.78;4.97;;;4.70;99.90;;;;;;4992935;28;20170;-84
2021/01/19 06:00:07;;;;;;;8.57;4.85;;;4.70;99.90;;;;;;4993059;28;20202;-84
2021/01/19 06:02:44;;;;;;;8.18;4.70;;;4.70;99.90;;;;;;5009921;28;20187;-86
2021/01/19 06:05:15;;;;;;;8.90;4.93;;;4.70;99.90;;;;;;4976747;28;20210;-85
2021/01/19 06:07:48;;;;;;;8.48;4.78;;;4.70;99.90;;;;;;4994402;28;20198;-84
2021/01/19 06:10:18;;;;;;;8.70;4.57;;;4.70;99.90;;;;;;5011913;28;20826;-84
2021/01/19 06:12:47;;;;;;;8.38;4.70;;;4.80;99.90;;;;;;4995375;28;20175;-84
2021/01/19 06:15:13;;;;;;;9.30;5.70;;;4.80;99.90;;;;;;5012295;28;20186;-84
2021/01/19 06:17:42;;;;;;;8.55;4.80;;;4.80;99.90;;;;;;4994836;28;20166;-84
2021/01/19 06:20:08;;;;;;;7.25;4.95;;;4.80;99.90;;;;;;4994414;28;20246;-85
2021/01/19 06:22:38;;;;;;;7.05;5.05;;;4.80;99.90;;;;;;4993917;28;20194;-85
2021/01/19 06:25:12;;;;;;;9.90;4.50;;;4.80;99.90;;;;;;4978068;28;20206;-84
2021/01/19 06:27:40;;;;;;;5.90;4.30;;;4.80;99.90;;;;;;4993318;28;20178;-84
2021/01/19 06:30:14;;;;;;;6.15;4.05;;;4.80;99.90;;;;;;5011932;28;20823;-85
2021/01/19 06:32:50;;;;;;;8.68;4.32;;;4.80;99.90;;;;;;5011532;28;20178;-85
2021/01/19 06:35:23;;;;;;;5.80;4.20;;;4.80;99.90;;;;;;4995636;28;20205;-84
2021/01/19 06:37:54;;;;;;;5.88;4.10;;;4.80;99.90;;;;;;4970734;28;20187;-84
2021/01/19 06:40:25;;;;;;;6.00;3.90;;;4.80;99.90;;;;;;4939825;29;20211;-85
2021/01/19 06:43:04;;;;;;;8.48;5.03;;;4.80;99.90;;;;;;4990090;28;20187;-85
2021/01/19 06:45:39;;;;;;;5.05;3.90;;;4.80;99.90;;;;;;4991213;28;20199;-84
2021/01/19 06:48:06;;;;;;;7.50;4.57;;;4.70;99.90;;;;;;4988918;28;20645;-84
2021/01/19 06:50:37;;;;;;;9.73;4.90;;;4.80;99.90;;;;;;4973785;28;20211;-84
2021/01/19 06:53:22;;;;;;;5.35;4.00;;;4.70;99.90;;;;;;4974602;28;20187;-84
2021/01/19 06:56:00;;;;;;;7.95;5.20;;;4.70;99.90;;;;;;4992176;28;20187;-84
2021/01/19 06:58:44;;;;;;;6.85;4.15;;;4.70;99.90;;;;;;4970389;28;20168;-80
2021/01/19 07:01:13;;;;;;;6.47;4.55;;;4.70;99.90;;;;;;4973127;28;20175;-84
2021/01/19 07:03:41;;;;;;;5.95;3.67;;;4.60;99.90;;;;;;4969011;28;20172;-84
2021/01/19 07:06:09;;;;;;;6.45;3.75;;;4.60;99.90;;;;;;4965203;28;20210;-82
2021/01/19 07:09:02;;;;;;;6.07;4.38;;;4.70;99.90;;;;;;4965670;28;20655;-83
2021/01/19 07:11:59;;;;;;;5.97;4.47;;;4.70;99.90;;;;;;4964347;28;20263;-82
2021/01/19 07:15:04;;;;;;;8.25;5.30;;;4.60;99.90;;;;;;4966869;28;20171;-82
2021/01/19 07:18:11;;;;;;;5.57;3.80;;;4.60;99.90;;;;;;4962851;28;20234;-81
2021/01/19 07:20:53;;;;;;;6.60;4.05;;;4.70;99.90;;;;;;4975167;28;20270;-82
2021/01/19 07:23:46;;;;;;;8.60;4.72;;;4.70;99.90;;;;;;4962792;28;20269;-82
2021/01/19 07:26:33;;;;;;;7.50;4.45;;;4.70;99.90;;;;;;4963328;28;20250;-83
2021/01/19 07:28:59;;;;;;;8.50;5.20;;;4.70;99.90;;;;;;4980728;28;20191;-83
2021/01/19 07:31:26;;;;;;;9.60;4.67;;;4.70;99.90;;;;;;4978699;28;20206;-80
2021/01/19 07:33:57;;;;;;;9.43;5.57;;;4.70;99.90;;;;;;4962853;28;20418;-83
2021/01/19 07:36:27;;;;;;;7.90;4.07;;;4.70;99.90;;;;;;4963614;28;20282;-83
2021/01/19 07:38:54;;;;;;;9.68;5.53;;;4.70;99.90;;;;;;4964890;28;20176;-82
2021/01/19 07:41:29;;;;;;;11.88;7.28;;;4.60;99.90;;;;;;4961521;28;20188;-82
2021/01/19 07:43:56;;;;;;;14.60;7.38;;;4.70;99.90;;;;;;4961901;28;20179;-82
2021/01/19 07:46:29;;;;;;;5.97;4.78;;;5.20;99.90;;;;;;4960526;28;20203;-82
2021/01/19 07:49:09;;;;;;;9.27;5.53;;;5.40;99.90;;;;;;4960724;28;20271;-83
2021/01/19 07:51:46;;;;;;;9.80;5.82;;;5.40;99.90;;;;;;4977633;28;20539;-81
2021/01/19 07:54:13;;;;;;;12.98;5.40;;;5.20;99.90;;;;;;4978549;28;20241;-82
2021/01/19 07:56:40;;;;;;;9.68;5.85;;;5.10;99.90;;;;;;4960555;28;20225;-82
2021/01/19 07:59:19;;;;;;;14.68;5.72;;;4.90;99.90;;;;;;4961249;28;20179;-82
2021/01/19 08:01:58;;;;;;;12.38;6.90;;;4.80;99.90;;;;;;4963928;28;20176;-81
2021/01/19 08:04:35;;;;;;;7.43;5.50;;;4.80;99.90;;;;;;4961836;28;20183;-82
2021/01/19 08:07:11;;;;;;;7.40;5.70;;;4.80;99.90;;;;;;4945680;28;20195;-83
2021/01/19 08:09:37;;;;;;;9.52;4.45;;;4.80;99.90;;;;;;4959400;28;20202;-82
2021/01/19 08:12:12;;;;;;;9.70;5.90;;;4.80;99.90;;;;;;4962705;28;20234;-82
2021/01/19 08:14:45;;;;;;;12.77;6.25;;;4.70;99.90;;;;;;4948812;28;20451;-82
2021/01/19 08:17:12;;;;;;;13.75;6.03;;;4.80;99.90;;;;;;4979155;28;20207;-82
2021/01/19 08:19:43;;;;;;;9.27;4.75;;;4.70;99.90;;;;;;4978153;28;20178;-82
2021/01/19 08:22:09;;;;;;;9.50;5.65;;;4.70;99.90;;;;;;4945291;28;20662;-83
2021/01/19 08:24:35;;;;;;;11.20;5.40;;;4.70;99.90;;;;;;4978281;28;20179;-82
2021/01/19 08:27:01;;;;;;;6.93;4.83;;;4.80;99.90;;;;;;4978313;28;20241;-82
2021/01/19 08:29:28;;;;;;;9.00;5.65;;;4.80;99.90;;;;;;4960228;28;20617;-82
2021/01/19 08:32:00;;;;;;;10.05;5.18;;;4.80;99.90;;;;;;4944936;28;20198;-82
2021/01/19 08:34:27;;;;;;;9.43;6.55;;;4.80;99.90;;;;;;4962085;28;20198;-81
2021/01/19 08:36:55;;;;;;;7.88;4.80;;;4.90;99.90;;;;;;4983974;28;20215;-80
2021/01/19 08:39:21;;;;;;;9.27;5.57;;;4.90;99.90;;;;;;4970278;28;20175;-80
2021/01/19 08:41:49;;;;;;;8.07;6.00;;;4.90;99.90;;;;;;4988379;28;20179;-80
2021/01/19 08:44:15;;;;;;;7.93;5.50;;;4.90;99.90;;;;;;4965533;28;20205;-81
2021/01/19 08:46:45;;;;;;;9.73;5.00;;;4.90;99.90;;;;;;4985160;28;20195;-81
2021/01/19 08:49:12;;;;;;;12.48;7.22;;;4.90;99.90;;;;;;4965629;28;20207;-81
2021/01/19 08:51:48;;;;;;;7.80;5.75;;;4.90;99.90;;;;;;4965468;28;20203;-80
2021/01/19 08:54:15;;;;;;;6.65;4.80;;;4.90;99.90;;;;;;4965924;28;20589;-80
2021/01/19 08:56:42;;;;;;;8.52;4.65;;;4.90;99.90;;;;;;4983671;28;20184;-82
2021/01/19 08:59:11;;;;;;;7.68;5.15;;;5.00;99.90;;;;;;4966860;28;20587;-79
2021/01/19 09:01:50;;;;;;;8.60;5.10;;;5.00;99.90;;;;;;4948772;28;20180;-80
2021/01/19 09:04:27;;;;;;;6.82;4.63;;;5.00;99.90;;;;;;4965203;28;20175;-80
2021/01/19 09:07:03;;;;;;;12.95;6.07;;;5.00;99.90;;;;;;4983226;28;20218;-81
2021/01/19 09:09:28;;;;;;;8.80;5.60;;;5.00;99.90;;;;;;4984876;28;20285;-82
2021/01/19 09:11:56;;;;;;;6.93;5.20;;;5.10;99.90;;;;;;4973057;28;20182;-84
2021/01/19 09:14:25;;;;;;;9.70;4.90;;;5.10;99.90;;;;;;4973930;28;20184;-82
2021/01/19 09:16:52;;;;;;;9.18;4.22;;;5.10;99.90;;;;;;4990913;28;20211;-85
2021/01/19 09:19:19;;;;;;;11.50;6.07;;;5.10;99.90;;;;;;4990914;28;20175;-82
2021/01/19 09:21:44;;;;;;;9.27;5.90;;;5.10;99.90;;;;;;4991137;28;20202;-82
2021/01/19 09:24:21;;;;;;;7.70;4.83;;;5.10;99.90;;;;;;4990622;28;20183;-82
2021/01/19 09:27:07;;;;;;;10.05;5.10;;;5.20;99.90;;;;;;4990223;28;20418;-83
2021/01/19 09:29:33;;;;;;;5.00;4.47;;;5.20;99.90;;;;;;4948978;28;20203;-81
2021/01/19 09:32:03;;;;;;;6.00;4.43;;;5.20;99.90;;;;;;4981699;28;20176;-81
2021/01/19 09:34:30;;;;;;;8.10;4.90;;;5.20;99.90;;;;;;4980714;28;20210;-81
2021/01/19 09:36:56;;;;;;;7.90;4.47;;;5.20;99.90;;;;;;4980936;28;20218;-81
2021/01/19 09:39:32;;;;;;;10.32;4.90;;;5.30;99.90;;;;;;4947682;28;20606;-80
2021/01/19 09:41:59;;;;;;;8.32;4.68;;;5.40;99.90;;;;;;4963813;28;20194;-81
2021/01/19 09:44:28;;;;;;;11.65;5.28;;;5.30;99.90;;;;;;4948086;28;20251;-81
2021/01/19 09:47:00;;;;;;;12.10;5.60;;;5.40;99.90;;;;;;4962935;28;20179;-80
2021/01/19 09:49:27;;;;;;;6.40;4.68;;;5.40;99.90;;;;;;4962641;28;20211;-81
2021/01/19 09:51:53;;;;;;;7.05;4.05;;;5.40;99.90;;;;;;4981285;28;20240;-81
2021/01/19 09:54:23;;;;;;;6.03;4.30;;;5.40;99.90;;;;;;4965978;28;20178;-80
2021/01/19 09:56:59;;;;;;;5.63;3.88;;;5.40;99.90;;;;;;4964128;28;20171;-80
2021/01/19 09:59:26;;;;;;;7.25;4.00;;;5.40;99.90;;;;;;4963241;28;20197;-81
2021/01/19 10:01:58;;;;;;;6.15;4.85;;;5.50;99.90;;;;;;4962138;28;20187;-80
2021/01/19 10:04:25;;;;;;;6.75;4.50;;;5.50;99.90;;;;;;4948439;28;20271;-81
2021/01/19 10:07:11;;;;;;;6.45;4.55;;;5.40;99.90;;;;;;4982032;28;20191;-80
2021/01/19 10:09:40;;;;;;;10.70;5.30;;;5.40;99.90;;;;;;4963623;28;20622;-81
2021/01/19 10:12:07;;;;;;;6.60;4.07;;;5.40;99.90;;;;;;4963181;28;20254;-81
2021/01/19 10:14:43;;;;;;;6.57;4.55;;;5.40;99.90;;;;;;4964186;28;20172;-82
2021/01/19 10:17:10;;;;;;;8.88;4.43;;;5.40;99.90;;;;;;4964113;28;20168;-81
2021/01/19 10:19:38;;;;;;;8.10;5.22;;;5.40;99.90;;;;;;4980379;28;20195;-80
2021/01/19 10:22:09;;;;;;;6.03;3.20;;;5.40;99.90;;;;;;4962603;28;20203;-81
2021/01/19 10:24:46;;;;;;;6.78;4.53;;;5.50;99.90;;;;;;4963387;28;20171;-81
2021/01/19 10:27:20;;;;;;;4.70;4.18;;;5.50;99.90;;;;;;4981420;28;20167;-81
2021/01/19 10:29:49;;;;;;;6.40;4.63;;;5.50;99.90;;;;;;4963550;28;20270;-80
2021/01/19 10:32:16;;;;;;;5.13;3.78;;;5.50;99.90;;;;;;4980853;28;20168;-81
2021/01/19 10:34:47;;;;;;;8.90;4.32;;;5.50;99.90;;;;;;4964063;28;20245;-81
2021/01/19 10:37:14;;;;;;;6.88;5.05;;;5.50;99.90;;;;;;4963405;28;20167;-81
2021/01/19 10:39:56;;;;;;;6.90;3.13;;;5.50;99.90;;;;;;4980591;28;20163;-81
2021/01/19 10:42:27;;;;;;;5.30;3.40;;;5.40;99.90;;;;;;4963414;28;20175;-81
2021/01/19 10:44:58;;;;;;;5.20;4.10;;;5.40;99.90;;;;;;4978908;28;20679;-81
2021/01/19 10:47:25;;;;;;;3.63;2.80;;;5.40;99.90;;;;;;4977674;28;20179;-81
2021/01/19 10:49:51;;;;;;;6.82;4.55;;;5.40;99.90;;;;;;4960761;28;20640;-80
2021/01/19 10:52:16;;;;;;;15.23;3.80;;;5.40;99.90;;;;;;4978778;28;20210;-81
2021/01/19 10:54:42;;;;;;;4.73;3.53;;;5.40;99.90;;;;;;4979949;28;20427;-81
2021/01/19 10:57:09;;;;;;;6.97;4.10;;;5.40;99.90;;;;;;4979270;28;20176;-81
2021/01/19 10:59:36;;;;;;;4.57;3.35;;;5.30;99.90;;;;;;4978953;28;20199;-81
2021/01/19 11:02:03;;;;;;;9.60;3.20;;;5.20;99.90;;;;;;4961941;28;20787;-82
2021/01/19 11:04:29;;;;;;;7.43;3.35;;;5.20;99.90;;;;;;4946543;28;20179;-81
2021/01/19 11:06:55;;;;;;;6.57;3.57;;;5.10;99.90;;;;;;4962486;28;20199;-81
2021/01/19 11:09:20;;;;;;;8.13;3.10;;;5.20;99.90;;;;;;4962679;28;20211;-82
2021/01/19 11:11:46;;;;;;;3.30;3.00;;;5.20;99.90;;;;;;4979388;28;20199;-82
2021/01/19 11:14:13;;;;;;;7.20;2.88;;;5.30;99.90;;;;;;4962705;28;20647;-81
2021/01/19 11:16:41;;;;;;;5.93;3.60;;;5.20;99.90;;;;;;4979413;28;20191;-81
2021/01/19 11:19:08;;;;;;;6.10;3.20;;;5.20;99.90;;;;;;4946087;28;20266;-81
2021/01/19 11:21:35;;;;;;;8.05;2.65;;;5.00;99.90;;;;;;4980213;28;20175;-82
2021/01/19 11:24:02;;;;;;;3.85;2.78;;;4.90;99.90;;;;;;4979669;28;20175;-81
2021/01/19 11:26:29;;;;;;;6.60;3.03;;;5.00;99.90;;;;;;4961652;28;20319;-81
2021/01/19 11:28:56;;;;;;;6.15;3.10;;;5.00;99.90;;;;;;4961510;28;20175;-82
2021/01/19 11:31:26;;;;;;;4.80;3.45;;;5.00;99.90;;;;;;4978664;28;20171;-81
2021/01/19 11:33:53;;;;;;;5.25;3.13;;;5.10;99.90;;;;;;4945265;28;20746;-82
2021/01/19 11:36:25;;;;;;;4.55;3.10;;;4.90;99.90;;;;;;4978759;28;20219;-81
2021/01/19 11:38:52;;;;;;;4.20;2.80;;;4.80;99.90;;;;;;4978409;28;20167;-82
2021/01/19 11:41:20;;;;;;;8.45;3.20;;;4.80;99.90;;;;;;4978750;28;20376;-82
2021/01/19 11:43:46;;;;;;;5.60;2.30;;;4.80;99.90;;;;;;4960918;28;20199;-80
2021/01/19 11:46:16;;;;;;;3.60;3.10;;;4.70;99.90;;;;;;4977426;28;20199;-83
2021/01/19 11:48:42;;;;;;;4.28;3.28;;;4.70;99.90;;;;;;4978839;28;20258;-83
2021/01/19 11:51:24;;;;;;;11.93;2.63;;;4.70;99.90;;;;;;4960942;28;20221;-81
2021/01/19 11:53:52;;;;;;;10.18;2.70;;;4.60;99.90;;;;;;4953174;28;20204;-82
2021/01/19 11:56:19;;;;;;;5.72;2.33;;;4.50;99.90;;;;;;4950042;28;20282;-83
2021/01/19 11:58:46;;;;;;;3.30;2.63;;;4.50;99.90;;;;;;4945975;28;20801;-81
2021/01/19 12:01:23;;;;;;;3.75;2.53;;;4.50;99.90;;;;;;4979948;28;20211;-82
2021/01/19 12:03:49;;;;;;;3.97;2.20;;;4.30;99.90;;;;;;4976228;28;20159;-84
2021/01/19 12:06:18;;;;;;;3.90;2.50;;;4.20;99.90;;;;;;4978674;28;20222;-81
2021/01/19 12:08:51;;;;;;;3.08;2.75;;;4.10;99.90;;;;;;4963778;28;20180;-83
2021/01/19 12:11:17;;;;;;;3.88;3.50;;;4.10;99.90;;;;;;4965126;28;20167;-82
2021/01/19 12:14:27;;;;;;;4.70;3.28;;;4.00;99.90;;;;;;4950084;28;20175;-82
2021/01/19 12:17:46;;;;;;;2.58;2.38;;;3.90;99.90;;;;;;4966311;28;20171;-82
2021/01/19 12:20:16;;;;;;;3.97;2.88;;;3.80;99.90;;;;;;4981056;28;20190;-82
2021/01/19 12:23:17;;;;;;;4.97;3.35;;;3.80;99.90;;;;;;4972814;28;20178;-82
2021/01/19 12:25:43;;;;;;;6.00;2.78;;;3.70;99.90;;;;;;4968971;28;20249;-82
2021/01/19 12:28:09;;;;;;;3.53;2.87;;;3.70;99.90;;;;;;4948092;28;20207;-82
2021/01/19 12:30:34;;;;;;;8.10;3.70;;;3.70;99.90;;;;;;4985322;28;20195;-82
2021/01/19 12:33:00;;;;;;;3.67;2.80;;;3.70;99.90;;;;;;4967763;28;20259;-82
2021/01/19 12:35:28;;;;;;;3.10;2.77;;;3.70;99.90;;;;;;4964510;28;20667;-82
2021/01/19 12:37:57;;;;;;;2.97;2.55;;;3.60;99.90;;;;;;4965476;28;20182;-83
2021/01/19 12:40:23;;;;;;;3.38;2.38;;;3.70;99.90;;;;;;4984930;28;20175;-83
2021/01/19 12:42:49;;;;;;;9.10;3.28;;;3.70;99.90;;;;;;4949884;28;20202;-82
2021/01/19 12:45:24;;;;;;;2.75;2.45;;;3.70;99.90;;;;;;4965609;28;20203;-82
2021/01/19 12:47:51;;;;;;;3.38;2.72;;;3.60;99.90;;;;;;4964954;28;20171;-83
2021/01/19 12:50:18;;;;;;;3.45;2.22;;;3.60;99.90;;;;;;4965448;28;20210;-82
2021/01/19 12:52:44;;;;;;;6.13;2.35;;;3.60;99.90;;;;;;4967686;28;20179;-81
2021/01/19 12:55:11;;;;;;;3.30;2.60;;;3.60;99.90;;;;;;4968534;28;20195;-82
2021/01/19 12:57:38;;;;;;;8.52;2.65;;;3.50;99.90;;;;;;4967309;28;20258;-81
2021/01/19 13:00:05;;;;;;;4.80;2.75;;;3.60;99.90;;;;;;4982794;28;20191;-82
2021/01/19 13:02:33;;;;;;;3.70;2.80;;;3.60;99.90;;;;;;4949254;28;20175;-82
2021/01/19 13:05:02;;;;;;;2.25;2.05;;;3.60;99.90;;;;;;4967581;28;20254;-83
2021/01/19 13:07:28;;;;;;;3.15;2.30;;;3.60;99.90;;;;;;4984798;28;20167;-82
2021/01/19 13:09:55;;;;;;;3.30;2.60;;;3.60;99.90;;;;;;4986497;28;20199;-82
2021/01/19 13:12:20;;;;;;;2.47;2.20;;;3.60;99.90;;;;;;4968696;28;20175;-82
2021/01/19 13:14:49;;;;;;;2.80;2.50;;;3.60;99.90;;;;;;4965726;28;20199;-83